createdAt,value
2022-08-14T00:02:19.643Z,99129.31
2022-08-14T00:05:11.473Z,99117.94
2022-08-14T00:07:59.977Z,99115.78
2022-08-14T00:10:51.435Z,99115.16
2022-08-14T00:13:41.717Z,99107.66
2022-08-14T00:16:41.341Z,99103.47
2022-08-14T00:19:36.734Z,99096.72
2022-08-14T00:22:56.194Z,99098.94
2022-08-14T00:25:42.321Z,99095.97
2022-08-14T00:28:32.752Z,99085.53
2022-08-14T00:31:43.875Z,99089.72
2022-08-14T00:34:36.489Z,99085.53
2022-08-14T00:37:27.204Z,99076.94
2022-08-14T00:40:33.382Z,99076.63
2022-08-14T00:43:23.436Z,99060.88
2022-08-14T00:46:32.334Z,99059.94
2022-08-14T00:49:21.228Z,99063.84
2022-08-14T00:52:09.491Z,99074.78
2022-08-14T00:55:04.064Z,99071.34
2022-08-14T00:58:07.254Z,99066.50
2022-08-14T01:00:57.379Z,99078.19
2022-08-14T01:03:46.001Z,99061.84
2022-08-14T01:06:41.023Z,99065.56
2022-08-14T01:09:30.505Z,99058.69
2022-08-14T01:12:27.268Z,99050.44
2022-08-14T01:15:31.650Z,99050.59
2022-08-14T01:18:57.810Z,99054.22
2022-08-14T01:21:53.164Z,99050.47
2022-08-14T01:24:44.183Z,99054.66
2022-08-14T01:27:32.071Z,99051.88
2022-08-14T01:30:41.059Z,99059.66
2022-08-14T01:33:30.973Z,99059.97
2022-08-14T01:36:39.749Z,99055.16
2022-08-14T01:39:32.150Z,99050.66
2022-08-14T01:42:31.523Z,99027.75
2022-08-14T01:45:25.758Z,99026.34
2022-08-14T01:48:16.242Z,99019.63
2022-08-14T01:51:19.527Z,99004.50
2022-08-14T01:54:14.254Z,99007.16
2022-08-14T01:57:04.302Z,99008.25
2022-08-14T01:59:57.771Z,99001.56
2022-08-14T02:02:46.435Z,98999.97
2022-08-14T02:05:38.063Z,98985.47
2022-08-14T02:08:35.329Z,98973.31
2022-08-14T02:11:25.290Z,98970.69
2022-08-14T02:14:15.484Z,98965.38
2022-08-14T02:17:23.851Z,98971.47
2022-08-14T02:20:12.432Z,98970.19
2022-08-14T02:23:00.704Z,98960.22
2022-08-14T02:25:54.735Z,98969.22
2022-08-14T02:28:57.317Z,98965.03
2022-08-14T02:31:52.004Z,98980.66
2022-08-14T02:34:39.714Z,98973.16
2022-08-14T02:37:47.338Z,98973.47
2022-08-14T02:40:40.519Z,98972.19
2022-08-14T02:43:37.162Z,98970.34
2022-08-14T02:46:35.232Z,98968.78
2022-08-14T02:49:34.069Z,98962.53
2022-08-14T02:52:56.470Z,98954.13
2022-08-14T02:55:33.433Z,98946.00
2022-08-14T02:58:30.312Z,98943.97
2022-08-14T03:01:24.033Z,98934.34
2022-08-14T03:04:14.734Z,98944.59
2022-08-14T03:07:08.326Z,98947.72
2022-08-14T03:10:25.508Z,98946.63
2022-08-14T03:13:06.317Z,98937.63
2022-08-14T03:16:01.729Z,98938.38
2022-08-14T03:19:01.119Z,98936.66
2022-08-14T03:21:52.954Z,98940.09
2022-08-14T03:24:42.139Z,98948.66
2022-08-14T03:27:35.444Z,98944.47
2022-08-14T03:30:40.998Z,98953.50
2022-08-14T03:33:37.728Z,98938.69
2022-08-14T03:37:38.010Z,98943.53
2022-08-14T03:39:36.506Z,98935.91
2022-08-14T03:42:35.702Z,98937.75
2022-08-14T03:45:35.222Z,98938.84
2022-08-14T03:48:30.531Z,98938.25
2022-08-14T03:51:19.747Z,98940.09
2022-08-14T03:54:09.501Z,98935.91
2022-08-14T03:57:04.353Z,98927.03
2022-08-14T03:59:53.779Z,98919.22
2022-08-14T04:02:46.883Z,98922.97
2022-08-14T04:05:42.704Z,98920.75
2022-08-14T04:08:31.793Z,98929.06
2022-08-14T04:11:20.835Z,98921.72
2022-08-14T04:14:08.815Z,98921.56
2022-08-14T04:16:58.027Z,98929.81
2022-08-14T04:19:46.427Z,98922.78
2022-08-14T04:22:37.009Z,98922.34
2022-08-14T04:25:25.043Z,98927.16
2022-08-14T04:29:06.891Z,98917.16
2022-08-14T04:31:34.675Z,98925.41
2022-08-14T04:34:33.952Z,98914.97
2022-08-14T04:37:41.621Z,98918.25
2022-08-14T04:40:47.011Z,98908.13
2022-08-14T04:43:38.822Z,98921.97
2022-08-14T04:46:56.603Z,98921.50
2022-08-14T04:49:46.480Z,98923.81
2022-08-14T04:52:34.771Z,98903.59
2022-08-14T04:55:25.348Z,98919.47
2022-08-14T04:58:21.888Z,98930.84
2022-08-14T05:01:20.346Z,98930.38
2022-08-14T05:04:14.736Z,98928.19
2022-08-14T05:07:05.784Z,98929.31
2022-08-14T05:09:54.403Z,98915.59
2022-08-14T05:13:24.630Z,98929.91
2022-08-14T05:15:54.596Z,98937.38
2022-08-14T05:19:17.972Z,98937.84
2022-08-14T05:21:59.783Z,98929.13
2022-08-14T05:25:01.699Z,98931.94
2022-08-14T05:27:49.724Z,98933.81
2022-08-14T05:30:37.821Z,98924.75
2022-08-14T05:33:28.664Z,98933.50
2022-08-14T05:36:18.444Z,98913.56
2022-08-14T05:39:09.579Z,98904.38
2022-08-14T05:42:00.562Z,98927.09
2022-08-14T05:44:48.782Z,98925.56
2022-08-14T05:47:41.815Z,98927.59
2022-08-14T05:50:31.738Z,98920.88
2022-08-14T05:53:21.415Z,98918.41
2022-08-14T05:56:16.374Z,98923.84
2022-08-14T05:59:08.402Z,98912.47
2022-08-14T06:01:56.842Z,98914.97
2022-08-14T06:04:49.391Z,98915.16
2022-08-14T06:07:38.149Z,98923.09
2022-08-14T06:10:28.168Z,98920.31
2022-08-14T06:13:17.556Z,98917.34
2022-08-14T06:16:07.689Z,98913.16
2022-08-14T06:18:59.575Z,98914.84
2022-08-14T06:21:48.335Z,98919.06
2022-08-14T06:24:37.233Z,98914.06
2022-08-14T06:27:39.443Z,98907.38
2022-08-14T06:30:46.487Z,98903.16
2022-08-14T06:35:01.190Z,98900.31
2022-08-14T06:36:47.022Z,98895.34
2022-08-14T06:39:37.549Z,98882.84
2022-08-14T06:42:47.161Z,98883.94
2022-08-14T06:45:36.196Z,98878.94
2022-08-14T06:48:26.523Z,98880.44
2022-08-14T06:51:17.424Z,98870.13
2022-08-14T06:54:06.361Z,98865.56
2022-08-14T06:56:57.160Z,98859.78
2022-08-14T06:59:45.358Z,98857.06
2022-08-14T07:02:50.756Z,98843.16
2022-08-14T07:05:57.563Z,98841.56
2022-08-14T07:08:48.900Z,98832.78
2022-08-14T07:11:40.101Z,98831.63
2022-08-14T07:14:28.816Z,98831.13
2022-08-14T07:17:16.814Z,98827.28
2022-08-14T07:20:07.388Z,98824.91
2022-08-14T07:23:01.393Z,98830.94
2022-08-14T07:25:59.382Z,98834.31
2022-08-14T07:28:47.326Z,98832.69
2022-08-14T07:31:35.925Z,98836.81
2022-08-14T07:34:35.934Z,98823.44
2022-08-14T07:37:24.542Z,98811.19
2022-08-14T07:40:14.262Z,98822.22
2022-08-14T07:43:14.489Z,98819.91
2022-08-14T07:46:03.000Z,98826.38
2022-08-14T07:48:51.629Z,98838.47
2022-08-14T07:51:41.713Z,98845.72
2022-08-14T07:54:30.449Z,98850.31
2022-08-14T07:57:22.333Z,98846.09
2022-08-14T08:00:30.821Z,98850.19
2022-08-14T08:03:19.918Z,98849.41
2022-08-14T08:06:17.666Z,98847.88
2022-08-14T08:09:06.169Z,98849.75
2022-08-14T08:11:57.417Z,98839.00
2022-08-14T08:14:55.484Z,98835.13
2022-08-14T08:17:53.856Z,98827.75
2022-08-14T08:20:53.500Z,98831.16
2022-08-14T08:23:51.026Z,98829.63
2022-08-14T08:26:39.277Z,98836.81
2022-08-14T08:29:29.000Z,98839.75
2022-08-14T08:32:20.984Z,98830.50
2022-08-14T08:35:25.776Z,98821.59
2022-08-14T08:39:18.269Z,98826.00
2022-08-14T08:41:50.482Z,98824.38
2022-08-14T08:44:41.039Z,98833.47
2022-08-14T08:47:41.070Z,98824.63
2022-08-14T08:53:22.424Z,98828.59
2022-08-14T08:56:30.310Z,98807.50
2022-08-14T08:59:30.857Z,98817.34
2022-08-14T09:02:19.888Z,98811.47
2022-08-14T09:05:08.948Z,98805.59
2022-08-14T09:08:31.445Z,98806.50
2022-08-14T09:11:21.389Z,98802.81
2022-08-14T09:14:09.295Z,98794.94
2022-08-14T09:16:59.109Z,98790.22
2022-08-14T09:19:48.001Z,98791.16
2022-08-14T09:22:47.485Z,98786.31
2022-08-14T09:25:59.851Z,98779.28
2022-08-14T09:28:47.037Z,98780.25
2022-08-14T09:31:42.931Z,98779.69
2022-08-14T09:35:08.560Z,98779.59
2022-08-14T09:38:19.541Z,98777.88
2022-08-14T09:42:17.504Z,98759.63
2022-08-14T09:45:08.591Z,98741.41
2022-08-14T09:47:57.964Z,98756.03
2022-08-14T09:50:50.963Z,98750.75
2022-08-14T09:54:18.741Z,98741.63
2022-08-14T09:56:57.079Z,98735.69
2022-08-14T09:59:50.405Z,98761.78
2022-08-14T10:02:38.220Z,98753.47
2022-08-14T10:05:39.219Z,98747.88
2022-08-14T10:08:27.234Z,98746.84
2022-08-14T10:11:19.363Z,98738.88
2022-08-14T10:14:29.509Z,98742.72
2022-08-14T10:17:33.012Z,98748.44
2022-08-14T10:20:39.354Z,98741.22
2022-08-14T10:23:40.423Z,98753.97
2022-08-14T10:26:28.100Z,98753.34
2022-08-14T10:29:23.438Z,98739.63
2022-08-14T10:32:18.075Z,98742.78
2022-08-14T10:35:17.863Z,98739.00
2022-08-14T10:38:10.711Z,98721.47
2022-08-14T10:41:13.434Z,98716.56
2022-08-14T10:44:20.909Z,98712.38
2022-08-14T10:47:40.875Z,98707.00
2022-08-14T10:50:19.364Z,98694.78
2022-08-14T10:53:07.945Z,98691.00
2022-08-14T10:56:00.758Z,98685.25
2022-08-14T10:59:02.407Z,98681.09
2022-08-14T11:01:50.001Z,98676.91
2022-08-14T11:04:41.015Z,98676.94
2022-08-14T11:07:33.093Z,98667.38
2022-08-14T11:10:20.397Z,98662.44
2022-08-14T11:13:08.902Z,98638.72
2022-08-14T11:16:00.580Z,98635.66
2022-08-14T11:18:51.090Z,98629.56
2022-08-14T11:21:45.667Z,98631.44
2022-08-14T11:24:50.555Z,98621.53
2022-08-14T11:27:49.012Z,98625.31
2022-08-14T11:30:51.677Z,98622.25
2022-08-14T11:33:42.077Z,98621.44
2022-08-14T11:37:02.752Z,98614.94
2022-08-14T11:39:39.903Z,98612.63
2022-08-14T11:42:56.577Z,98612.34
2022-08-14T11:45:40.592Z,98619.22
2022-08-14T11:49:01.676Z,98618.53
2022-08-14T11:51:53.494Z,98617.03
2022-08-14T11:54:43.752Z,98612.84
2022-08-14T11:57:32.342Z,98611.72
2022-08-14T12:00:19.928Z,98603.31
2022-08-14T12:03:08.080Z,98612.94
2022-08-14T12:06:06.898Z,98617.88
2022-08-14T12:09:14.211Z,98613.31
2022-08-14T12:12:16.322Z,98608.31
2022-08-14T12:15:32.785Z,98621.78
2022-08-14T12:18:32.651Z,98610.66
2022-08-14T12:21:23.162Z,98597.22
2022-08-14T12:24:36.791Z,98590.28
2022-08-14T12:27:25.030Z,98582.63
2022-08-14T12:30:26.858Z,98572.72
2022-08-14T12:33:31.246Z,98572.38
2022-08-14T12:36:23.499Z,98560.53
2022-08-14T12:39:21.361Z,98560.97
2022-08-14T12:42:11.828Z,98560.25
2022-08-14T12:45:17.468Z,98550.72
2022-08-14T12:48:21.350Z,98546.13
2022-08-14T12:51:19.693Z,98543.06
2022-08-14T12:54:19.406Z,98536.97
2022-08-14T12:57:19.889Z,98527.41
2022-08-14T13:00:23.501Z,98533.19
2022-08-14T13:03:26.972Z,98522.41
2022-08-14T13:06:15.367Z,98509.81
2022-08-14T13:09:03.611Z,98502.50
2022-08-14T13:12:35.034Z,98500.19
2022-08-14T13:15:11.137Z,98491.03
2022-08-14T13:18:04.371Z,98487.97
2022-08-14T13:20:57.903Z,98487.19
2022-08-14T13:23:49.767Z,98489.09
2022-08-14T13:26:37.581Z,98484.09
2022-08-14T13:29:29.746Z,98490.63
2022-08-14T13:32:19.654Z,98483.72
2022-08-14T13:35:12.094Z,98481.44
2022-08-14T13:38:05.602Z,98481.06
2022-08-14T13:40:57.056Z,98471.13
2022-08-14T13:43:49.213Z,98475.31
2022-08-14T13:46:47.798Z,98466.16
2022-08-14T13:49:37.509Z,98459.66
2022-08-14T13:52:59.018Z,98453.13
2022-08-14T13:55:36.352Z,98448.91
2022-08-14T13:58:30.315Z,98435.09
2022-08-14T14:01:23.173Z,98445.09
2022-08-14T14:04:19.136Z,98437.41
2022-08-14T14:07:13.142Z,98425.94
2022-08-14T14:10:06.650Z,98425.94
2022-08-14T14:12:56.603Z,98427.06
2022-08-14T14:15:48.673Z,98435.47
2022-08-14T14:18:52.127Z,98415.59
2022-08-14T14:21:41.799Z,98398.34
2022-08-14T14:24:34.524Z,98389.94
2022-08-14T14:27:40.500Z,98405.63
2022-08-14T14:30:52.074Z,98409.09
2022-08-14T14:33:48.666Z,98398.78
2022-08-14T14:36:37.495Z,98400.72
2022-08-14T14:39:28.858Z,98388.13
2022-08-14T14:42:31.760Z,98391.59
2022-08-14T14:45:22.150Z,98388.53
2022-08-14T14:48:11.213Z,98386.97
2022-08-14T14:51:01.524Z,98376.22
2022-08-14T14:53:49.489Z,98379.31
2022-08-14T14:56:47.562Z,98374.75
2022-08-14T14:59:39.275Z,98373.59
2022-08-14T15:02:36.671Z,98368.63
2022-08-14T15:05:28.204Z,98371.72
2022-08-14T15:08:16.866Z,98366.34
2022-08-14T15:11:14.095Z,98356.78
2022-08-14T15:14:02.686Z,98353.34
2022-08-14T15:17:10.586Z,98352.97
2022-08-14T15:19:57.987Z,98356.44
2022-08-14T15:22:51.247Z,98364.47
2022-08-14T15:25:38.969Z,98351.06
2022-08-14T15:28:27.868Z,98358.38
2022-08-14T15:31:25.951Z,98359.91
2022-08-14T15:34:44.381Z,98361.44
2022-08-14T15:37:23.818Z,98360.31
2022-08-14T15:40:16.450Z,98352.63
2022-08-14T15:43:13.118Z,98358.78
2022-08-14T15:46:02.320Z,98352.63
2022-08-14T15:48:50.173Z,98353.78
2022-08-14T15:51:43.525Z,98355.69
2022-08-14T15:54:31.205Z,98349.53
2022-08-14T15:57:21.950Z,98359.50
2022-08-14T16:00:40.619Z,98348.75
2022-08-14T16:03:37.206Z,98351.03
2022-08-14T16:06:30.683Z,98353.34
2022-08-14T16:09:19.091Z,98347.22
2022-08-14T16:12:09.646Z,98341.09
2022-08-14T16:14:59.286Z,98344.94
2022-08-14T16:17:47.525Z,98339.94
2022-08-14T16:20:44.541Z,98340.69
2022-08-14T16:23:36.147Z,98344.91
2022-08-14T16:26:30.074Z,98336.44
2022-08-14T16:29:21.032Z,98339.88
2022-08-14T16:32:31.993Z,98338.72
2022-08-14T16:35:24.159Z,98333.72
2022-08-14T16:38:45.395Z,98332.22
2022-08-14T16:41:28.151Z,98330.66
2022-08-14T16:44:31.956Z,98332.53
2022-08-14T16:47:22.934Z,98331.38
2022-08-14T16:50:40.692Z,98332.47
2022-08-14T16:53:27.026Z,98319.81
2022-08-14T16:56:23.563Z,98322.50
2022-08-14T16:59:16.603Z,98320.97
2022-08-14T17:02:05.088Z,98325.19
2022-08-14T17:05:14.547Z,98312.16
2022-08-14T17:08:32.797Z,98319.03
2022-08-14T17:11:23.086Z,98319.41
2022-08-14T17:14:15.463Z,98320.91
2022-08-14T17:17:06.389Z,98316.28
2022-08-14T17:20:08.883Z,98313.19
2022-08-14T17:23:11.341Z,98315.47
2022-08-14T17:25:58.988Z,98311.22
2022-08-14T17:28:52.759Z,98306.22
2022-08-14T17:31:58.647Z,98308.13
2022-08-14T17:34:52.377Z,98309.56
2022-08-14T17:37:45.976Z,98304.56
2022-08-14T17:40:33.608Z,98312.94
2022-08-14T17:43:42.031Z,98310.63
2022-08-14T17:46:43.549Z,98314.78
2022-08-14T17:49:33.302Z,98309.75
2022-08-14T17:52:34.502Z,98316.22
2022-08-14T17:56:03.273Z,98312.75
2022-08-14T17:58:41.897Z,98310.44
2022-08-14T18:01:30.433Z,98314.22
2022-08-14T18:04:24.516Z,98315.28
2022-08-14T18:08:00.340Z,98312.97
2022-08-14T18:10:55.465Z,98315.59
2022-08-14T18:13:51.399Z,98312.13
2022-08-14T18:16:43.147Z,98311.69
2022-08-14T18:19:41.629Z,98316.25
2022-08-14T18:22:32.879Z,98305.47
2022-08-14T18:25:26.927Z,98322.22
2022-08-14T18:28:50.917Z,98319.09
2022-08-14T18:31:43.510Z,98328.91
2022-08-14T18:34:48.394Z,98326.59
2022-08-14T18:37:39.908Z,98327.25
2022-08-14T18:40:38.103Z,98330.28
2022-08-14T18:43:45.110Z,98327.88
2022-08-14T18:47:21.902Z,98333.88
2022-08-14T18:50:27.274Z,98341.09
2022-08-14T18:53:18.749Z,98344.06
2022-08-14T18:56:10.113Z,98345.94
2022-08-14T18:58:59.721Z,98338.22
2022-08-14T19:01:51.641Z,98352.28
2022-08-14T19:04:44.922Z,98354.16
2022-08-14T19:07:34.012Z,98351.78
2022-08-14T19:10:37.460Z,98350.97
2022-08-14T19:13:48.613Z,98347.47
2022-08-14T19:16:53.496Z,98354.63
2022-08-14T19:19:41.174Z,98353.03
2022-08-14T19:22:32.065Z,98344.56
2022-08-14T19:25:56.631Z,98363.50
2022-08-14T19:28:48.263Z,98361.88
2022-08-14T19:31:42.003Z,98367.53
2022-08-14T19:34:48.243Z,98359.41
2022-08-14T19:37:52.447Z,98361.97
2022-08-14T19:40:43.315Z,98363.03
2022-08-14T19:43:55.413Z,98348.81
2022-08-14T19:47:01.466Z,98361.25
2022-08-14T19:50:30.488Z,98356.94
2022-08-14T19:53:05.255Z,98358.31
2022-08-14T19:56:02.286Z,98366.28
2022-08-14T19:58:55.392Z,98378.03
2022-08-14T20:01:48.486Z,98381.00
2022-08-14T20:04:46.939Z,98377.06
2022-08-14T20:09:05.333Z,98375.03
2022-08-14T20:11:03.749Z,98374.53
2022-08-14T20:14:09.358Z,98372.88
2022-08-14T20:17:06.392Z,98370.09
2022-08-14T20:19:54.851Z,98373.03
2022-08-14T20:22:45.155Z,98375.94
2022-08-14T20:25:45.428Z,98378.19
2022-08-14T20:28:51.464Z,98375.81
2022-08-14T20:31:40.551Z,98374.25
2022-08-14T20:34:39.556Z,98380.31
2022-08-14T20:37:38.875Z,98376.28
2022-08-14T20:40:28.574Z,98379.94
2022-08-14T20:43:36.535Z,98381.34
2022-08-14T20:46:29.646Z,98396.00
2022-08-14T20:49:19.239Z,98386.25
2022-08-14T20:52:18.830Z,98379.69
2022-08-14T20:55:29.114Z,98387.91
2022-08-14T20:58:44.160Z,98380.56
2022-08-14T21:01:38.553Z,98376.72
2022-08-14T21:04:30.810Z,98378.16
2022-08-14T21:07:25.215Z,98384.09
2022-08-14T21:10:35.698Z,98393.47
2022-08-14T21:13:27.527Z,98395.97
2022-08-14T21:16:37.071Z,98400.44
2022-08-14T21:19:30.233Z,98395.81
2022-08-14T21:22:19.364Z,98394.28
2022-08-14T21:25:11.056Z,98400.34
2022-08-14T21:27:59.964Z,98403.34
2022-08-14T21:30:52.213Z,98396.50
2022-08-14T21:33:42.974Z,98388.06
2022-08-14T21:36:31.527Z,98388.81
2022-08-14T21:39:18.970Z,98386.50
2022-08-14T21:42:10.814Z,98389.50
2022-08-14T21:44:58.779Z,98391.75
2022-08-14T21:47:49.740Z,98392.78
2022-08-14T21:50:56.459Z,98391.59
2022-08-14T21:53:57.981Z,98398.69
2022-08-14T21:56:57.421Z,98402.91
2022-08-14T21:59:45.702Z,98397.50
2022-08-14T22:02:33.498Z,98406.25
2022-08-14T22:05:22.185Z,98403.94
2022-08-14T22:08:14.112Z,98399.66
2022-08-14T22:11:02.180Z,98396.91
2022-08-14T22:13:51.598Z,98400.25
2022-08-14T22:17:00.657Z,98401.69
2022-08-14T22:19:54.935Z,98406.94
2022-08-14T22:22:45.349Z,98404.63
2022-08-14T22:25:41.148Z,98409.94
2022-08-14T22:28:32.787Z,98406.84
2022-08-14T22:31:23.981Z,98403.44
2022-08-14T22:34:15.026Z,98404.50
2022-08-14T22:37:02.571Z,98411.31
2022-08-14T22:40:48.440Z,98410.53
2022-08-14T22:43:01.095Z,98393.69
2022-08-14T22:45:55.507Z,98406.59
2022-08-14T22:48:46.608Z,98395.84
2022-08-14T22:51:40.756Z,98400.28
2022-08-14T22:54:52.076Z,98398.28
2022-08-14T22:57:43.518Z,98395.56
2022-08-14T23:00:32.741Z,98401.28
2022-08-14T23:03:20.542Z,98409.59
2022-08-14T23:07:03.304Z,98403.53
2022-08-14T23:09:35.927Z,98398.09
2022-08-14T23:12:28.233Z,98399.22
2022-08-14T23:15:19.924Z,98393.91
2022-08-14T23:18:13.112Z,98397.69
2022-08-14T23:21:01.049Z,98410.22
2022-08-14T23:23:49.946Z,98403.34
2022-08-14T23:26:48.303Z,98403.69
2022-08-14T23:29:41.093Z,98399.38
2022-08-14T23:32:30.094Z,98402.03
2022-08-14T23:35:26.004Z,98386.09
2022-08-14T23:38:29.870Z,98395.88
2022-08-14T23:41:18.818Z,98395.41
2022-08-14T23:44:06.960Z,98395.88
2022-08-14T23:47:00.718Z,98392.75
2022-08-14T23:49:59.871Z,98393.88
2022-08-14T23:53:07.136Z,98400.28
2022-08-14T23:55:57.208Z,98395.69
2022-08-14T23:58:49.056Z,98396.44
